Aeroporto :
LOGIN :

Iscrizione | Disclaimer

   EN    FR    IT 

 










Sommario :    VFR   VFR Marginale   IFR   IFR Intensivo   IFR Molto Intensivo
Visibilità : 
Base nubi : 
>= 8 km
>= 3000ft
5 / 8 km
1000 / 3000 ft
1500m / 5 km
500 / 1000 ft
800 / 1500m
200 / 500 ft
< 800m
< 200 ft
Simboli :   Temporali  Nebbia  Neve Forte  Precipitazioni Forti  Vento > 20 kt
SIGMETs :   Varie  Temporali  Ghiacco  Turbolenza  Onda orograficha  Ceneri Vulcaniche






- Altitudine del aeroporto : 348 ft
- Codice IATA : STN


EGSS - London Stansted

ULTIMO METAR :
  • 211250Z AUTO 11012KT 9999 OVC010 06/04 Q1003

METARs OBSOLETI :
  • 211220Z AUTO 11012KT 9999 OVC011 06/04 Q1003
  • 211150Z AUTO 10014KT 9999 OVC012 06/04 Q1003
  • 211120Z AUTO 11014KT 9999 OVC012 06/04 Q1004
  • 211050Z AUTO 11015KT 9999 OVC012 06/04 Q1004
  • 211020Z AUTO 11012KT 9999 OVC013 06/03 Q1005

TAF TAF EGSS
Valido dal 21 a 12 ore il 22 a 18 ore UTC


211056Z 2112/2218 11010KT 9999 BKN010
BECMG 2112/2115 7000 BKN008
PROB40
TEMPO 2115/2120 4000 BR BKN004
BECMG 2121/2124 -RA BKN004
TEMPO 2122/2203 2000 RADZ OVC001
BECMG 2203/2206 9999 NSW SCT008
TEMPO 2203/2206 3000 +SHRA
TEMPO 2206/2214 6000 SHRA BKN008
TEMPO 2214/2218 BKN012
ATIS : +44 1279 669 325



MetMap, La meteo Aeronautica in un colpo d'occhio ! - Copyright ORBIFLY Dicembre 2007 - Disclaimer

ORBIFLY MET'MAP TEAM :

Programmazione e sviluppo : Alexandra Zaïnal
Concezione e sviluppo : Baudouin d'Aumeries
Co-Programmazione e sviluppo : Marc-Olivier Méhu
Supporto tecnico e logistico : Manuel Goepfert
Aiuto per la traduzione : Arnaldo La Scala

Contatto : metmap@orbifly.com




FONTI E CREDITI :

   NOAA